createdAt,value
2018-08-24T00:01:33.547Z,21.91
2018-08-24T00:04:06.379Z,22.09
2018-08-24T00:06:34.884Z,22.14
2018-08-24T00:09:04.028Z,21.83
2018-08-24T00:11:32.491Z,21.67
2018-08-24T00:14:00.911Z,21.46
2018-08-24T00:16:34.658Z,21.41
2018-08-24T00:19:03.171Z,21.55
2018-08-24T00:21:31.603Z,21.28
2018-08-24T00:24:00.312Z,21.48
2018-08-24T00:26:28.764Z,21.50
2018-08-24T00:29:00.166Z,21.41
2018-08-24T00:31:28.607Z,21.33
2018-08-24T00:33:57.012Z,21.43
2018-08-24T00:36:26.805Z,21.41
2018-08-24T00:38:56.070Z,21.40
2018-08-24T00:41:24.571Z,21.39
2018-08-24T00:43:52.984Z,21.38
2018-08-24T00:46:22.160Z,21.44
2018-08-24T00:48:50.599Z,21.41
2018-08-24T00:51:19.224Z,21.31
2018-08-24T00:53:47.648Z,21.49
2018-08-24T00:56:16.194Z,21.63
2018-08-24T00:58:44.635Z,21.62
2018-08-24T01:01:13.210Z,21.67
2018-08-24T01:03:41.638Z,21.69
2018-08-24T01:06:10.260Z,21.65
2018-08-24T01:08:38.669Z,21.74
2018-08-24T01:11:07.229Z,21.60
2018-08-24T01:13:35.631Z,21.59
2018-08-24T01:16:04.108Z,21.58
2018-08-24T01:18:37.721Z,21.72
2018-08-24T01:21:06.375Z,21.96
2018-08-24T01:23:35.428Z,21.75
2018-08-24T01:26:03.965Z,21.91
2018-08-24T01:28:32.620Z,22.03
2018-08-24T01:31:07.796Z,22.02
2018-08-24T01:33:36.244Z,21.82
2018-08-24T01:36:04.963Z,21.88
2018-08-24T01:39:36.206Z,21.97
2018-08-24T01:42:04.779Z,21.96
2018-08-24T01:44:33.696Z,21.87
2018-08-24T01:47:02.278Z,22.13
2018-08-24T01:49:30.685Z,21.96
2018-08-24T01:51:59.154Z,22.05
2018-08-24T01:54:27.592Z,22.18
2018-08-24T01:56:56.194Z,22.13
2018-08-24T01:59:24.595Z,22.13
2018-08-24T02:01:53.072Z,22.12
2018-08-24T02:04:21.469Z,22.20
2018-08-24T02:06:49.945Z,22.18
2018-08-24T02:09:21.987Z,21.99
2018-08-24T02:11:51.229Z,22.01
2018-08-24T02:14:25.242Z,22.00
2018-08-24T02:16:53.998Z,21.88
2018-08-24T02:21:34.128Z,21.81
2018-08-24T02:24:02.580Z,21.65
2018-08-24T02:26:31.054Z,21.61
2018-08-24T02:28:59.490Z,21.53
2018-08-24T02:31:32.487Z,21.54
2018-08-24T02:34:01.176Z,21.52
2018-08-24T02:36:29.662Z,21.59
2018-08-24T02:38:58.074Z,21.23
2018-08-24T02:41:26.532Z,21.46
2018-08-24T02:43:54.941Z,21.25
2018-08-24T02:46:23.402Z,21.15
2018-08-24T02:48:51.953Z,21.39
2018-08-24T02:51:20.422Z,21.32
2018-08-24T02:53:48.844Z,21.41
2018-08-24T02:56:17.357Z,21.62
2018-08-24T02:58:45.755Z,21.32
2018-08-24T03:01:14.204Z,22.11
2018-08-24T03:03:42.631Z,22.94
2018-08-24T03:06:11.263Z,23.25
2018-08-24T03:08:39.687Z,22.87
2018-08-24T03:11:08.304Z,22.96
2018-08-24T03:13:36.750Z,23.65
2018-08-24T03:16:05.254Z,23.51
2018-08-24T03:18:33.740Z,22.92
2018-08-24T03:21:02.200Z,23.18
2018-08-24T03:23:30.623Z,23.69
2018-08-24T03:25:59.145Z,22.57
2018-08-24T03:28:28.021Z,22.92
2018-08-24T03:30:56.441Z,22.48
2018-08-24T03:33:24.859Z,23.41
2018-08-24T03:35:53.531Z,23.70
2018-08-24T03:38:21.928Z,23.04
2018-08-24T03:40:50.550Z,23.27
2018-08-24T03:43:19.122Z,23.72
2018-08-24T03:45:47.612Z,23.55
2018-08-24T03:48:16.268Z,23.14
2018-08-24T03:50:44.804Z,22.92
2018-08-24T03:53:13.530Z,22.77
2018-08-24T03:55:43.961Z,22.80
2018-08-24T03:58:12.416Z,22.59
2018-08-24T04:00:40.855Z,22.35
2018-08-24T04:03:09.315Z,22.54
2018-08-24T04:05:37.731Z,22.02
2018-08-24T04:08:06.211Z,21.91
2018-08-24T04:10:34.661Z,22.08
2018-08-24T04:13:03.161Z,22.05
2018-08-24T04:15:32.291Z,22.15
2018-08-24T04:18:00.759Z,22.12
2018-08-24T04:20:29.172Z,22.11
2018-08-24T04:22:57.614Z,22.10
2018-08-24T04:25:26.049Z,22.30
2018-08-24T04:27:54.528Z,22.33
2018-08-24T04:30:23.176Z,22.00
2018-08-24T04:32:51.623Z,22.23
2018-08-24T04:35:20.028Z,22.20
2018-08-24T04:37:48.485Z,22.01
2018-08-24T04:40:17.139Z,21.79
2018-08-24T04:42:45.511Z,21.91
2018-08-24T04:45:13.910Z,22.10
2018-08-24T04:47:42.365Z,22.23
2018-08-24T04:50:10.834Z,22.71
2018-08-24T04:52:39.296Z,22.73
2018-08-24T04:55:07.756Z,22.77
2018-08-24T04:57:36.319Z,22.63
2018-08-24T05:00:05.011Z,22.63
2018-08-24T05:02:33.490Z,22.46
2018-08-24T05:05:01.946Z,22.41
2018-08-24T05:07:30.395Z,22.31
2018-08-24T05:09:59.119Z,22.34
2018-08-24T05:12:27.560Z,22.19
2018-08-24T05:14:55.993Z,22.20
2018-08-24T05:17:24.464Z,22.28
2018-08-24T05:19:52.917Z,22.24
2018-08-24T05:22:21.387Z,22.06
2018-08-24T05:24:49.886Z,21.83
2018-08-24T05:27:18.293Z,21.84
2018-08-24T05:29:46.714Z,21.69
2018-08-24T05:32:15.220Z,21.60
2018-08-24T05:34:43.632Z,21.72
2018-08-24T05:37:12.099Z,21.98
2018-08-24T05:39:40.531Z,22.08
2018-08-24T05:42:09.225Z,22.14
2018-08-24T05:44:37.692Z,22.25
2018-08-24T05:47:06.105Z,22.14
2018-08-24T05:49:34.546Z,22.44
2018-08-24T05:52:03.171Z,22.51
2018-08-24T05:54:31.658Z,22.41
2018-08-24T05:57:00.077Z,22.24
2018-08-24T05:59:28.524Z,22.41
2018-08-24T06:01:56.975Z,22.41
2018-08-24T06:04:25.437Z,22.34
2018-08-24T06:06:55.500Z,22.12
2018-08-24T06:09:24.061Z,22.32
2018-08-24T06:11:52.552Z,22.44
2018-08-24T06:14:20.992Z,22.17
2018-08-24T06:16:54.732Z,22.28
2018-08-24T06:19:23.282Z,22.51
2018-08-24T06:21:51.949Z,22.66
2018-08-24T06:24:21.020Z,22.85
2018-08-24T06:26:49.603Z,22.94
2018-08-24T06:29:18.347Z,22.96
2018-08-24T06:31:46.801Z,22.76
2018-08-24T06:34:15.203Z,22.91
2018-08-24T06:36:43.895Z,22.80
2018-08-24T06:39:13.811Z,23.02
2018-08-24T06:41:43.423Z,22.96
2018-08-24T06:44:12.325Z,22.94
2018-08-24T06:46:40.727Z,23.07
2018-08-24T06:49:09.418Z,23.15
2018-08-24T06:51:37.919Z,23.28
2018-08-24T06:54:06.852Z,23.04
2018-08-24T06:56:35.261Z,23.28
2018-08-24T06:59:03.721Z,23.11
2018-08-24T07:01:32.175Z,22.60
2018-08-24T07:04:00.615Z,23.10
2018-08-24T07:06:29.048Z,23.58
2018-08-24T07:08:57.487Z,23.36
2018-08-24T07:11:25.948Z,23.38
2018-08-24T07:13:54.367Z,23.40
2018-08-24T07:16:22.778Z,23.72
2018-08-24T07:18:51.237Z,24.08
2018-08-24T07:21:19.636Z,24.23
2018-08-24T07:23:48.523Z,24.54
2018-08-24T07:26:16.941Z,24.78
2018-08-24T07:28:45.361Z,24.64
2018-08-24T07:31:13.780Z,24.34
2018-08-24T07:33:42.191Z,24.84
2018-08-24T07:36:10.643Z,25.25
2018-08-24T07:38:39.087Z,25.08
2018-08-24T07:41:07.627Z,24.93
2018-08-24T07:43:36.079Z,24.97
2018-08-24T07:46:04.742Z,24.95
2018-08-24T07:48:33.198Z,25.17
2018-08-24T07:51:01.688Z,25.04
2018-08-24T07:53:30.187Z,24.70
2018-08-24T07:55:58.704Z,24.88
2018-08-24T07:58:27.144Z,24.89
2018-08-24T08:00:55.545Z,24.98
2018-08-24T08:03:23.941Z,25.00
2018-08-24T08:05:52.402Z,24.96
2018-08-24T08:08:20.815Z,25.04
2018-08-24T08:10:49.305Z,24.69
2018-08-24T08:13:17.714Z,24.81
2018-08-24T08:15:46.164Z,24.94
2018-08-24T08:18:15.228Z,25.54
2018-08-24T08:20:43.630Z,25.51
2018-08-24T08:23:12.075Z,25.41
2018-08-24T08:25:40.672Z,25.63
2018-08-24T08:28:09.696Z,25.39
2018-08-24T08:30:38.757Z,25.75
2018-08-24T08:33:07.347Z,26.19
2018-08-24T08:35:35.756Z,25.44
2018-08-24T08:38:04.210Z,25.63
2018-08-24T08:40:32.803Z,25.71
2018-08-24T08:43:01.188Z,25.54
2018-08-24T08:45:29.633Z,25.83
2018-08-24T08:47:58.077Z,25.67
2018-08-24T08:50:26.552Z,25.31
2018-08-24T08:52:55.048Z,25.44
2018-08-24T08:55:23.485Z,25.97
2018-08-24T08:57:52.077Z,25.51
2018-08-24T09:00:20.479Z,25.57
2018-08-24T09:02:48.943Z,26.01
2018-08-24T09:05:17.359Z,26.98
2018-08-24T09:07:45.786Z,27.16
2018-08-24T09:10:14.253Z,27.28
2018-08-24T09:12:43.350Z,26.98
2018-08-24T09:15:11.773Z,27.10
2018-08-24T09:17:45.424Z,26.61
2018-08-24T09:20:18.955Z,26.37
2018-08-24T09:22:52.485Z,25.89
2018-08-24T09:25:26.341Z,26.00
2018-08-24T09:27:59.959Z,26.26
2018-08-24T09:30:32.239Z,26.92
2018-08-24T09:33:00.778Z,26.92
2018-08-24T09:35:29.161Z,26.62
2018-08-24T09:37:57.604Z,27.30
2018-08-24T09:40:31.287Z,27.50
2018-08-24T09:43:04.007Z,27.73
2018-08-24T09:45:32.635Z,28.25
2018-08-24T09:49:09.142Z,28.42
2018-08-24T09:51:37.773Z,28.66
2018-08-24T09:54:08.156Z,28.33
2018-08-24T09:56:38.080Z,27.77
2018-08-24T09:59:06.711Z,27.86
2018-08-24T10:01:40.667Z,27.25
2018-08-24T10:04:14.494Z,27.37
2018-08-24T10:06:48.565Z,27.94
2018-08-24T10:09:17.131Z,28.22
2018-08-24T10:11:45.701Z,28.61
2018-08-24T10:14:14.155Z,29.17
2018-08-24T10:16:42.724Z,27.91
2018-08-24T10:19:15.398Z,28.27
2018-08-24T10:21:43.955Z,28.15
2018-08-24T10:24:12.742Z,27.90
2018-08-24T10:26:41.467Z,27.76
2018-08-24T10:29:10.210Z,27.36
2018-08-24T10:31:38.854Z,27.68
2018-08-24T10:34:07.312Z,28.14
2018-08-24T10:36:36.149Z,27.31
2018-08-24T10:39:06.515Z,28.59
2018-08-24T10:41:34.851Z,28.08
2018-08-24T10:44:03.894Z,28.12
2018-08-24T10:46:32.399Z,27.54
2018-08-24T10:49:00.908Z,28.59
2018-08-24T10:51:29.369Z,28.22
2018-08-24T10:53:58.008Z,27.72
2018-08-24T10:56:26.796Z,28.19
2018-08-24T10:58:55.657Z,27.84
2018-08-24T11:01:24.147Z,29.21
2018-08-24T11:03:52.815Z,28.99
2018-08-24T11:06:21.251Z,28.75
2018-08-24T11:08:49.851Z,28.76
2018-08-24T11:11:18.259Z,28.37
2018-08-24T11:13:46.740Z,29.47
2018-08-24T11:16:15.142Z,29.74
2018-08-24T11:18:43.575Z,29.01
2018-08-24T11:21:12.081Z,28.71
2018-08-24T11:23:40.519Z,29.88
2018-08-24T11:26:08.973Z,28.68
2018-08-24T11:28:37.398Z,28.64
2018-08-24T11:31:05.851Z,28.33
2018-08-24T11:33:34.291Z,27.96
2018-08-24T11:36:02.824Z,27.71
2018-08-24T11:38:31.211Z,27.70
2018-08-24T11:40:59.649Z,27.97
2018-08-24T11:43:28.147Z,28.15
2018-08-24T11:45:56.582Z,28.17
2018-08-24T11:48:27.338Z,28.06
2018-08-24T11:50:56.663Z,28.76
2018-08-24T11:53:25.576Z,28.53
2018-08-24T11:55:54.049Z,29.13
2018-08-24T11:58:22.621Z,28.71
2018-08-24T12:00:51.083Z,28.65
2018-08-24T12:03:19.503Z,28.55
2018-08-24T12:05:47.941Z,27.87
2018-08-24T12:08:16.414Z,28.13
2018-08-24T12:10:44.836Z,28.40
2018-08-24T12:13:13.292Z,28.19
2018-08-24T12:15:42.006Z,28.86
2018-08-24T12:18:10.514Z,27.82
2018-08-24T12:20:38.942Z,28.45
2018-08-24T12:23:07.456Z,29.06
2018-08-24T12:25:35.938Z,29.06
2018-08-24T12:28:04.560Z,29.08
2018-08-24T12:30:33.271Z,29.84
2018-08-24T12:33:01.900Z,29.69
2018-08-24T12:35:30.349Z,28.82
2018-08-24T12:37:58.997Z,29.28
2018-08-24T12:40:27.408Z,29.12
2018-08-24T12:42:55.872Z,29.81
2018-08-24T12:45:24.396Z,29.96
2018-08-24T12:47:52.793Z,29.97
2018-08-24T12:50:21.532Z,29.19
2018-08-24T12:52:50.182Z,29.50
2018-08-24T12:55:18.677Z,28.59
2018-08-24T12:57:47.095Z,28.56
2018-08-24T13:00:15.734Z,28.19
2018-08-24T13:02:44.206Z,28.48
2018-08-24T13:05:12.641Z,28.05
2018-08-24T13:07:41.086Z,28.79
2018-08-24T13:10:09.556Z,28.96
2018-08-24T13:12:38.016Z,28.71
2018-08-24T13:15:06.508Z,28.21
2018-08-24T13:17:34.966Z,28.40
2018-08-24T13:20:03.619Z,28.17
2018-08-24T13:22:32.084Z,27.89
2018-08-24T13:25:00.559Z,27.42
2018-08-24T13:27:28.951Z,28.36
2018-08-24T13:29:57.375Z,28.11
2018-08-24T13:32:26.153Z,27.87
2018-08-24T13:34:54.587Z,27.74
2018-08-24T13:37:24.217Z,27.93
2018-08-24T13:39:52.988Z,28.28
2018-08-24T13:42:21.843Z,28.00
2018-08-24T13:44:50.528Z,27.89
2018-08-24T13:47:18.989Z,28.60
2018-08-24T13:49:47.558Z,28.38
2018-08-24T13:52:16.129Z,28.97
2018-08-24T13:54:44.862Z,28.79
2018-08-24T13:57:13.508Z,28.82
2018-08-24T13:59:42.416Z,28.10
2018-08-24T14:02:11.132Z,28.71
2018-08-24T14:04:39.820Z,28.80
2018-08-24T14:07:08.476Z,28.53
2018-08-24T14:09:37.145Z,29.02
2018-08-24T14:12:05.971Z,28.64
2018-08-24T14:14:34.603Z,28.44
2018-08-24T14:17:03.463Z,28.61
2018-08-24T14:19:31.916Z,28.57
2018-08-24T14:22:00.672Z,28.11
2018-08-24T14:24:30.000Z,28.29
2018-08-24T14:26:58.436Z,28.47
2018-08-24T14:29:26.899Z,28.53
2018-08-24T14:31:55.486Z,27.87
2018-08-24T14:34:23.996Z,27.67
2018-08-24T14:36:53.104Z,26.92
2018-08-24T14:39:21.785Z,27.17
2018-08-24T14:41:50.286Z,27.17
2018-08-24T14:44:18.725Z,27.05
2018-08-24T14:46:47.135Z,26.63
2018-08-24T14:49:15.600Z,26.29
2018-08-24T14:51:44.051Z,25.87
2018-08-24T14:54:12.471Z,25.36
2018-08-24T14:56:40.940Z,25.28
2018-08-24T14:59:09.383Z,25.29
2018-08-24T15:01:37.772Z,25.20
2018-08-24T15:04:06.205Z,25.36
2018-08-24T15:06:34.831Z,25.04
2018-08-24T15:09:03.431Z,24.92
2018-08-24T15:11:31.879Z,24.94
2018-08-24T15:14:00.311Z,23.88
2018-08-24T15:16:28.742Z,23.75
2018-08-24T15:18:57.173Z,23.37
2018-08-24T15:21:26.543Z,23.83
2018-08-24T15:23:55.449Z,23.75
2018-08-24T15:26:23.912Z,24.57
2018-08-24T15:28:52.416Z,24.65
2018-08-24T15:31:21.059Z,24.17
2018-08-24T15:33:49.737Z,23.86
2018-08-24T15:36:18.433Z,24.13
2018-08-24T15:39:49.737Z,24.27
2018-08-24T15:42:18.196Z,24.24
2018-08-24T15:44:46.685Z,24.06
2018-08-24T15:47:15.116Z,24.19
2018-08-24T15:49:43.528Z,24.40
2018-08-24T15:52:12.216Z,24.75
2018-08-24T15:54:40.707Z,24.34
2018-08-24T15:57:09.062Z,24.50
2018-08-24T15:59:37.926Z,25.07
2018-08-24T16:02:06.470Z,25.19
2018-08-24T16:04:34.896Z,24.56
2018-08-24T16:07:03.325Z,25.05
2018-08-24T16:09:31.734Z,24.88
2018-08-24T16:12:00.293Z,24.72
2018-08-24T16:14:28.695Z,25.12
2018-08-24T16:16:57.171Z,25.65
2018-08-24T16:19:25.591Z,24.99
2018-08-24T16:21:54.076Z,25.45
2018-08-24T16:24:22.819Z,25.36
2018-08-24T16:26:51.233Z,24.72
2018-08-24T16:29:19.631Z,25.06
2018-08-24T16:31:48.058Z,25.48
2018-08-24T16:34:16.508Z,25.05
2018-08-24T16:36:44.956Z,24.88
2018-08-24T16:39:13.422Z,25.03
2018-08-24T16:41:41.863Z,25.05
2018-08-24T16:44:10.440Z,24.94
2018-08-24T16:46:38.985Z,24.72
2018-08-24T16:49:07.550Z,24.58
2018-08-24T16:51:35.989Z,24.46
2018-08-24T16:54:04.415Z,24.42
2018-08-24T16:56:32.900Z,24.61
2018-08-24T16:59:01.324Z,24.43
2018-08-24T17:01:29.779Z,24.44
2018-08-24T17:03:58.480Z,24.64
2018-08-24T17:06:26.930Z,24.47
2018-08-24T17:08:55.390Z,24.49
2018-08-24T17:11:23.968Z,24.40
2018-08-24T17:13:52.895Z,24.36
2018-08-24T17:16:22.048Z,24.38
2018-08-24T17:18:50.467Z,24.73
2018-08-24T17:21:18.943Z,24.60
2018-08-24T17:23:47.403Z,24.43
2018-08-24T17:26:15.931Z,24.42
2018-08-24T17:28:45.166Z,24.39
2018-08-24T17:31:13.501Z,24.70
2018-08-24T17:33:41.960Z,24.61
2018-08-24T17:36:10.395Z,24.49
2018-08-24T17:38:38.810Z,24.33
2018-08-24T17:41:07.265Z,24.42
2018-08-24T17:43:35.689Z,24.38
2018-08-24T17:46:04.145Z,24.51
2018-08-24T17:48:32.599Z,24.36
2018-08-24T17:51:01.316Z,24.40
2018-08-24T17:53:29.939Z,24.36
2018-08-24T17:55:58.379Z,24.27
2018-08-24T17:58:26.856Z,24.42
2018-08-24T18:00:55.314Z,24.43
2018-08-24T18:03:23.899Z,24.44
2018-08-24T18:05:52.608Z,24.28
2018-08-24T18:08:20.983Z,24.26
2018-08-24T18:10:49.453Z,24.27
2018-08-24T18:13:17.866Z,24.25
2018-08-24T18:15:46.404Z,24.48
2018-08-24T18:18:16.144Z,24.36
2018-08-24T18:20:44.729Z,24.24
2018-08-24T18:23:13.616Z,24.06
2018-08-24T18:25:42.207Z,24.06
2018-08-24T18:28:10.671Z,24.35
2018-08-24T18:30:39.094Z,24.44
2018-08-24T18:33:07.725Z,24.36
2018-08-24T18:35:36.188Z,24.33
2018-08-24T18:38:04.669Z,24.23
2018-08-24T18:40:33.128Z,24.38
2018-08-24T18:43:01.588Z,23.89
2018-08-24T18:45:30.038Z,23.96
2018-08-24T18:47:58.468Z,24.24
2018-08-24T18:50:26.972Z,24.42
2018-08-24T18:52:55.444Z,24.15
2018-08-24T18:55:24.222Z,24.29
2018-08-24T18:57:52.769Z,24.33
2018-08-24T19:00:21.256Z,24.43
2018-08-24T19:02:49.800Z,24.26
2018-08-24T19:05:18.414Z,24.22
2018-08-24T19:07:46.911Z,24.09
2018-08-24T19:10:15.347Z,24.20
2018-08-24T19:12:43.804Z,24.10
2018-08-24T19:15:12.224Z,24.07
2018-08-24T19:17:45.940Z,23.76
2018-08-24T19:20:19.696Z,24.04
2018-08-24T19:22:50.412Z,23.97
2018-08-24T19:25:19.081Z,24.16
2018-08-24T19:27:53.054Z,23.93
2018-08-24T19:30:34.308Z,23.94
2018-08-24T19:33:03.179Z,23.94
2018-08-24T19:35:32.356Z,24.12
2018-08-24T19:38:01.231Z,23.74
2018-08-24T19:40:34.844Z,23.57
2018-08-24T19:43:03.298Z,23.70
2018-08-24T19:45:31.812Z,23.77
2018-08-24T19:48:05.584Z,23.67
2018-08-24T19:50:33.979Z,23.69
2018-08-24T19:53:02.425Z,23.68
2018-08-24T19:55:31.299Z,23.66
2018-08-24T19:58:04.985Z,23.55
2018-08-24T20:00:33.518Z,23.71
2018-08-24T20:03:02.300Z,23.58
2018-08-24T20:05:30.770Z,23.51
2018-08-24T20:08:04.325Z,23.49
2018-08-24T20:10:32.797Z,23.34
2018-08-24T20:13:01.320Z,23.54
2018-08-24T20:15:34.969Z,23.44
2018-08-24T20:18:03.419Z,23.43
2018-08-24T20:20:32.201Z,23.18
2018-08-24T20:23:00.623Z,23.33
2018-08-24T20:25:29.063Z,23.31
2018-08-24T20:27:57.475Z,23.45
2018-08-24T20:30:25.909Z,23.23
2018-08-24T20:32:54.328Z,23.33
2018-08-24T20:35:22.726Z,23.32
2018-08-24T20:37:51.159Z,23.40
2018-08-24T20:40:19.572Z,23.35
2018-08-24T20:42:48.012Z,23.08
2018-08-24T20:45:16.714Z,22.97
2018-08-24T20:47:45.155Z,22.55
2018-08-24T20:50:13.568Z,22.51
2018-08-24T20:52:43.503Z,22.32
2018-08-24T20:55:12.057Z,22.19
2018-08-24T20:57:40.471Z,21.95
2018-08-24T21:00:09.174Z,21.86
2018-08-24T21:02:37.624Z,21.53
2018-08-24T21:05:06.352Z,21.11
2018-08-24T21:08:08.623Z,21.11
2018-08-24T21:10:37.236Z,21.01
2018-08-24T21:13:05.855Z,20.68
2018-08-24T21:15:34.280Z,20.64
2018-08-24T21:18:02.686Z,20.31
2018-08-24T21:20:31.388Z,20.39
2018-08-24T21:22:59.820Z,20.48
2018-08-24T21:25:28.515Z,20.45
2018-08-24T21:27:56.962Z,20.41
2018-08-24T21:30:25.415Z,20.44
2018-08-24T21:32:53.857Z,20.39
2018-08-24T21:35:22.284Z,20.30
2018-08-24T21:37:50.773Z,20.31
2018-08-24T21:40:19.397Z,20.15
2018-08-24T21:42:47.859Z,20.24
2018-08-24T21:45:16.317Z,20.28
2018-08-24T21:47:44.740Z,20.10
2018-08-24T21:50:13.131Z,19.98
2018-08-24T21:52:41.628Z,19.98
2018-08-24T21:55:10.080Z,19.82
2018-08-24T21:57:38.508Z,19.87
2018-08-24T22:00:10.686Z,19.88
2018-08-24T22:02:39.163Z,19.85
2018-08-24T22:05:07.637Z,19.78
2018-08-24T22:07:36.078Z,19.65
2018-08-24T22:10:05.046Z,19.83
2018-08-24T22:12:33.503Z,19.72
2018-08-24T22:15:01.954Z,19.75
2018-08-24T22:17:30.443Z,19.67
2018-08-24T22:19:58.887Z,19.66
2018-08-24T22:22:27.336Z,19.78
2018-08-24T22:24:55.802Z,19.64
2018-08-24T22:27:24.230Z,19.65
2018-08-24T22:29:52.947Z,19.71
2018-08-24T22:32:21.319Z,19.66
2018-08-24T22:34:49.821Z,19.72
2018-08-24T22:37:18.248Z,19.63
2018-08-24T22:39:46.932Z,19.76
2018-08-24T22:42:15.366Z,19.77
2018-08-24T22:44:43.758Z,19.69
2018-08-24T22:47:12.284Z,19.65
2018-08-24T22:49:40.734Z,19.70
2018-08-24T22:52:09.181Z,19.65
2018-08-24T22:54:37.597Z,19.68
2018-08-24T22:57:06.103Z,19.73
2018-08-24T22:59:34.707Z,19.91
2018-08-24T23:02:03.616Z,19.79
2018-08-24T23:04:32.073Z,19.79
2018-08-24T23:07:00.515Z,19.76
2018-08-24T23:09:28.980Z,19.73
2018-08-24T23:11:57.387Z,19.78
2018-08-24T23:14:25.878Z,19.81
2018-08-24T23:19:53.281Z,19.64
2018-08-24T23:22:21.915Z,19.63
2018-08-24T23:24:50.380Z,19.67
2018-08-24T23:27:18.802Z,19.75
2018-08-24T23:29:47.260Z,19.89
2018-08-24T23:32:15.705Z,19.90
2018-08-24T23:34:44.172Z,19.89
2018-08-24T23:37:12.606Z,19.77
2018-08-24T23:39:41.119Z,19.76
2018-08-24T23:42:09.576Z,19.75
2018-08-24T23:44:38.055Z,19.88
2018-08-24T23:47:06.493Z,19.82
2018-08-24T23:49:34.967Z,19.77
2018-08-24T23:52:03.732Z,19.73
2018-08-24T23:54:32.172Z,19.69
2018-08-24T23:57:00.587Z,19.52
2018-08-24T23:59:29.065Z,19.61
